Terminal Aerodrome Forecast
Issued by NWS

Home | Current Version | Previous Version | Graphics & Text | Print | Product List | Glossary On
Versions: 1 2 3 4 5 6 7 8 9 10 11 12 13 14 15 16 17 18 19 20
041
FTUS43 KMPX 290651 AAA
TAFAXN
TAF AMD
KAXN 290651Z 2907/3006 29005KT P6SM VCSH BKN007 OVC090
      TEMPO 2907/2910 -SHRA OVC015
     FM291000 29004KT 5SM BR OVC005
     FM291400 29009KT P6SM BKN035
     FM292000 28012G17KT P6SM SCT150
     FM300200 29006KT P6SM SKC=

USA.gov is the U.S. government's official web portal to all federal, state and local government web resources and services.